sensor_id;sensor_type;location;lat;lon;timestamp;pressure;altitude;pressure_sealevel;temperature;humidity
63552;BME280;49698;48.072;7.800;2023-02-01T00:00:53;100369.22;;;4.94;79.21
63552;BME280;49698;48.072;7.800;2023-02-01T00:03:21;100369.81;;;4.96;79.31
63552;BME280;49698;48.072;7.800;2023-02-01T00:05:56;100353.25;;;4.94;79.18
63552;BME280;49698;48.072;7.800;2023-02-01T00:08:24;100359.59;;;4.93;79.24
63552;BME280;49698;48.072;7.800;2023-02-01T00:10:58;100346.28;;;4.93;79.26
63552;BME280;49698;48.072;7.800;2023-02-01T00:13:28;100345.25;;;4.94;79.30
63552;BME280;49698;48.072;7.800;2023-02-01T00:16:03;100338.06;;;4.95;78.96
63552;BME280;49698;48.072;7.800;2023-02-01T00:18:31;100343.38;;;4.95;79.02
63552;BME280;49698;48.072;7.800;2023-02-01T00:21:00;100338.06;;;4.95;79.06
63552;BME280;49698;48.072;7.800;2023-02-01T00:23:31;100335.63;;;4.93;79.05
63552;BME280;49698;48.072;7.800;2023-02-01T00:26:00;100329.50;;;4.93;79.00
63552;BME280;49698;48.072;7.800;2023-02-01T00:28:29;100327.63;;;4.93;79.22
63552;BME280;49698;48.072;7.800;2023-02-01T00:30:57;100321.13;;;4.89;79.28
63552;BME280;49698;48.072;7.800;2023-02-01T00:33:25;100320.53;;;4.87;79.51
63552;BME280;49698;48.072;7.800;2023-02-01T00:35:56;100325.47;;;4.83;79.58
63552;BME280;49698;48.072;7.800;2023-02-01T00:38:25;100328.38;;;4.82;79.49
63552;BME280;49698;48.072;7.800;2023-02-01T00:40:54;100323.50;;;4.79;79.64
63552;BME280;49698;48.072;7.800;2023-02-01T00:43:22;100322.09;;;4.76;79.73
63552;BME280;49698;48.072;7.800;2023-02-01T00:45:50;100324.41;;;4.73;79.91
63552;BME280;49698;48.072;7.800;2023-02-01T00:48:18;100317.41;;;4.72;79.56
63552;BME280;49698;48.072;7.800;2023-02-01T00:50:46;100311.50;;;4.70;79.84
63552;BME280;49698;48.072;7.800;2023-02-01T00:53:14;100301.28;;;4.66;79.71
63552;BME280;49698;48.072;7.800;2023-02-01T00:55:46;100302.34;;;4.65;79.83
63552;BME280;49698;48.072;7.800;2023-02-01T00:58:14;100304.41;;;4.63;79.80
63552;BME280;49698;48.072;7.800;2023-02-01T01:00:42;100301.16;;;4.61;79.96
63552;BME280;49698;48.072;7.800;2023-02-01T01:03:10;100316.31;;;4.61;80.20
63552;BME280;49698;48.072;7.800;2023-02-01T01:05:45;100311.81;;;4.61;79.97
63552;BME280;49698;48.072;7.800;2023-02-01T01:08:13;100317.13;;;4.61;79.74
63552;BME280;49698;48.072;7.800;2023-02-01T01:10:42;100317.13;;;4.61;79.98
63552;BME280;49698;48.072;7.800;2023-02-01T01:13:11;100304.41;;;4.63;79.93
63552;BME280;49698;48.072;7.800;2023-02-01T01:15:40;100298.50;;;4.61;79.79
63552;BME280;49698;48.072;7.800;2023-02-01T01:18:08;100302.78;;;4.62;79.83
63552;BME280;49698;48.072;7.800;2023-02-01T01:20:38;100295.84;;;4.61;79.73
63552;BME280;49698;48.072;7.800;2023-02-01T01:23:07;100299.50;;;4.60;79.80
63552;BME280;49698;48.072;7.800;2023-02-01T01:25:37;100299.31;;;4.62;80.07
63552;BME280;49698;48.072;7.800;2023-02-01T01:28:05;100293.38;;;4.60;79.88
63552;BME280;49698;48.072;7.800;2023-02-01T01:30:35;100296.28;;;4.58;79.63
63552;BME280;49698;48.072;7.800;2023-02-01T01:33:03;100295.84;;;4.61;79.64
63552;BME280;49698;48.072;7.800;2023-02-01T01:35:32;100300.34;;;4.61;79.76
63552;BME280;49698;48.072;7.800;2023-02-01T01:38:01;100296.84;;;4.60;79.50
63552;BME280;49698;48.072;7.800;2023-02-01T01:40:30;100297.44;;;4.62;79.70
63552;BME280;49698;48.072;7.800;2023-02-01T01:42:58;100301.16;;;4.61;79.65
63552;BME280;49698;48.072;7.800;2023-02-01T01:45:29;100302.78;;;4.62;79.50
63552;BME280;49698;48.072;7.800;2023-02-01T01:48:02;100295.84;;;4.61;79.45
63552;BME280;49698;48.072;7.800;2023-02-01T01:50:35;100292.34;;;4.61;79.44
63552;BME280;49698;48.072;7.800;2023-02-01T01:53:05;100285.38;;;4.60;79.37
63552;BME280;49698;48.072;7.800;2023-02-01T01:55:37;100295.84;;;4.61;79.38
63552;BME280;49698;48.072;7.800;2023-02-01T01:58:08;100299.50;;;4.60;79.30
63552;BME280;49698;48.072;7.800;2023-02-01T02:00:38;100295.84;;;4.61;79.20
63552;BME280;49698;48.072;7.800;2023-02-01T02:03:13;100299.50;;;4.60;79.26
63552;BME280;49698;48.072;7.800;2023-02-01T02:05:42;100299.50;;;4.60;79.21
63552;BME280;49698;48.072;7.800;2023-02-01T02:08:11;100299.50;;;4.60;79.14
63552;BME280;49698;48.072;7.800;2023-02-01T02:10:40;100298.69;;;4.60;79.22
63552;BME280;49698;48.072;7.800;2023-02-01T02:13:28;100281.09;;;4.59;79.20
63552;BME280;49698;48.072;7.800;2023-02-01T02:16:05;100279.47;;;4.58;79.02
63552;BME280;49698;48.072;7.800;2023-02-01T02:18:45;100277.03;;;4.56;79.09
63552;BME280;49698;48.072;7.800;2023-02-01T02:21:35;100266.59;;;4.55;79.05
63552;BME280;49698;48.072;7.800;2023-02-01T02:24:38;100270.50;;;4.52;79.08
63552;BME280;49698;48.072;7.800;2023-02-01T02:27:21;100273.41;;;4.51;79.02
63552;BME280;49698;48.072;7.800;2023-02-01T02:30:16;100276.31;;;4.49;78.95
63552;BME280;49698;48.072;7.800;2023-02-01T02:33:21;100281.84;;;4.48;78.88
63552;BME280;49698;48.072;7.800;2023-02-01T02:36:00;100276.75;;;4.46;78.95
63552;BME280;49698;48.072;7.800;2023-02-01T02:38:35;100283.06;;;4.45;79.09
63552;BME280;49698;48.072;7.800;2023-02-01T02:41:13;100278.00;;;4.44;78.88
63552;BME280;49698;48.072;7.800;2023-02-01T02:44:10;100279.84;;;4.43;78.90
63552;BME280;49698;48.072;7.800;2023-02-01T02:47:01;100270.22;;;4.42;79.06
63552;BME280;49698;48.072;7.800;2023-02-01T02:50:04;100288.06;;;4.41;78.69
63552;BME280;49698;48.072;7.800;2023-02-01T02:52:56;100268.59;;;4.41;78.95
63552;BME280;49698;48.072;7.800;2023-02-01T02:55:43;100271.47;;;4.39;79.02
63552;BME280;49698;48.072;7.800;2023-02-01T02:58:12;100268.59;;;4.41;78.94
63552;BME280;49698;48.072;7.800;2023-02-01T03:00:59;100267.78;;;4.40;78.90
63552;BME280;49698;48.072;7.800;2023-02-01T03:03:46;100263.50;;;4.39;78.73
63552;BME280;49698;48.072;7.800;2023-02-01T03:06:39;100261.66;;;4.40;78.76
63552;BME280;49698;48.072;7.800;2023-02-01T03:09:12;100260.03;;;4.39;78.94
63552;BME280;49698;48.072;7.800;2023-02-01T03:11:44;100267.41;;;4.37;78.82
63552;BME280;49698;48.072;7.800;2023-02-01T03:14:33;100271.09;;;4.36;79.00
63552;BME280;49698;48.072;7.800;2023-02-01T03:17:07;100258.84;;;4.35;79.04
63552;BME280;49698;48.072;7.800;2023-02-01T03:19:40;100267.88;;;4.34;78.96
63552;BME280;49698;48.072;7.800;2023-02-01T03:22:19;100262.53;;;4.34;78.84
63552;BME280;49698;48.072;7.800;2023-02-01T03:24:51;100271.53;;;4.33;79.14
63552;BME280;49698;48.072;7.800;2023-02-01T03:27:24;100276.28;;;4.31;79.34
63552;BME280;49698;48.072;7.800;2023-02-01T03:29:59;100287.97;;;4.30;79.35
63552;BME280;49698;48.072;7.800;2023-02-01T03:32:29;100288.97;;;4.29;79.22
63552;BME280;49698;48.072;7.800;2023-02-01T03:35:20;100290.84;;;4.28;79.32
63552;BME280;49698;48.072;7.800;2023-02-01T03:37:55;100289.22;;;4.27;79.52
63552;BME280;49698;48.072;7.800;2023-02-01T03:40:24;100297.19;;;4.27;79.35
63552;BME280;49698;48.072;7.800;2023-02-01T03:42:55;100296.38;;;4.27;79.45
63552;BME280;49698;48.072;7.800;2023-02-01T03:45:27;100289.41;;;4.26;79.62
63552;BME280;49698;48.072;7.800;2023-02-01T03:47:59;100306.22;;;4.26;79.63
63552;BME280;49698;48.072;7.800;2023-02-01T03:50:30;100302.94;;;4.24;79.66
63552;BME280;49698;48.072;7.800;2023-02-01T03:53:04;100318.09;;;4.24;79.81
63552;BME280;49698;48.072;7.800;2023-02-01T03:55:33;100324.47;;;4.23;80.03
63552;BME280;49698;48.072;7.800;2023-02-01T03:58:07;100322.81;;;4.22;80.11
63552;BME280;49698;48.072;7.800;2023-02-01T04:00:35;100312.63;;;4.19;80.20
63552;BME280;49698;48.072;7.800;2023-02-01T04:03:05;100310.19;;;4.17;80.43
63552;BME280;49698;48.072;7.800;2023-02-01T04:05:34;100313.06;;;4.15;80.52
63552;BME280;49698;48.072;7.800;2023-02-01T04:08:06;100306.94;;;4.15;80.67
63552;BME280;49698;48.072;7.800;2023-02-01T04:10:34;100305.50;;;4.12;80.87
63552;BME280;49698;48.072;7.800;2023-02-01T04:13:02;100309.22;;;4.11;81.33
63552;BME280;49698;48.072;7.800;2023-02-01T04:15:30;100309.63;;;4.08;81.34
63552;BME280;49698;48.072;7.800;2023-02-01T04:17:58;100321.31;;;4.07;81.37
63552;BME280;49698;48.072;7.800;2023-02-01T04:20:26;100327.06;;;4.04;81.39
63552;BME280;49698;48.072;7.800;2023-02-01T04:22:54;100329.97;;;4.03;81.43
63552;BME280;49698;48.072;7.800;2023-02-01T04:25:23;100316.84;;;4.01;81.62
63552;BME280;49698;48.072;7.800;2023-02-01T04:27:51;100320.56;;;4.00;81.62
63552;BME280;49698;48.072;7.800;2023-02-01T04:30:19;100314.03;;;3.96;81.96
63552;BME280;49698;48.072;7.800;2023-02-01T04:32:47;100308.34;;;3.92;82.11
63552;BME280;49698;48.072;7.800;2023-02-01T04:35:15;100305.88;;;3.91;82.47
63552;BME280;49698;48.072;7.800;2023-02-01T04:37:44;100294.88;;;3.87;82.57
63552;BME280;49698;48.072;7.800;2023-02-01T04:40:12;100302.03;;;3.87;82.81
63552;BME280;49698;48.072;7.800;2023-02-01T04:42:41;100312.66;;;3.87;82.76
63552;BME280;49698;48.072;7.800;2023-02-01T04:45:10;100293.25;;;3.86;83.16
63552;BME280;49698;48.072;7.800;2023-02-01T04:47:38;100260.94;;;3.83;83.82
63552;BME280;49698;48.072;7.800;2023-02-01T04:50:07;100250.75;;;3.80;83.61
63552;BME280;49698;48.072;7.800;2023-02-01T04:52:37;100267.72;;;3.79;84.10
63552;BME280;49698;48.072;7.800;2023-02-01T04:55:05;100272.47;;;3.77;84.23
63552;BME280;49698;48.072;7.800;2023-02-01T04:57:33;100276.16;;;3.76;84.30
63552;BME280;49698;48.072;7.800;2023-02-01T05:00:03;100281.47;;;3.76;84.34
63552;BME280;49698;48.072;7.800;2023-02-01T05:02:32;100287.59;;;3.76;84.62
63552;BME280;49698;48.072;7.800;2023-02-01T05:04:59;100286.78;;;3.76;84.72
63552;BME280;49698;48.072;7.800;2023-02-01T05:07:28;100296.97;;;3.79;84.54
63552;BME280;49698;48.072;7.800;2023-02-01T05:09:56;100306.00;;;3.78;84.53
63552;BME280;49698;48.072;7.800;2023-02-01T05:12:24;100306.00;;;3.78;84.44
63552;BME280;49698;48.072;7.800;2023-02-01T05:15:11;100306.81;;;3.78;84.30
63552;BME280;49698;48.072;7.800;2023-02-01T05:17:38;100296.16;;;3.78;84.23
63552;BME280;49698;48.072;7.800;2023-02-01T05:20:08;100298.00;;;3.78;84.41
63552;BME280;49698;48.072;7.800;2023-02-01T05:22:36;100310.28;;;3.79;84.51
63552;BME280;49698;48.072;7.800;2023-02-01T05:25:05;100316.63;;;3.78;84.25
63552;BME280;49698;48.072;7.800;2023-02-01T05:27:34;100318.47;;;3.77;84.28
63552;BME280;49698;48.072;7.800;2023-02-01T05:30:03;100315.59;;;3.79;84.58
63552;BME280;49698;48.072;7.800;2023-02-01T05:32:32;100319.50;;;3.76;84.56
63552;BME280;49698;48.072;7.800;2023-02-01T05:35:00;100315.81;;;3.77;84.53
63552;BME280;49698;48.072;7.800;2023-02-01T05:37:28;100312.34;;;3.77;84.73
63552;BME280;49698;48.072;7.800;2023-02-01T05:39:56;100317.88;;;3.75;84.52
63552;BME280;49698;48.072;7.800;2023-02-01T05:42:24;100317.06;;;3.75;84.84
63552;BME280;49698;48.072;7.800;2023-02-01T05:44:52;100310.13;;;3.74;84.86
63552;BME280;49698;48.072;7.800;2023-02-01T05:47:20;100312.34;;;3.77;84.60
63552;BME280;49698;48.072;7.800;2023-02-01T05:49:49;100313.81;;;3.73;85.05
63552;BME280;49698;48.072;7.800;2023-02-01T05:52:17;100313.00;;;3.72;85.25
63552;BME280;49698;48.072;7.800;2023-02-01T05:54:46;100309.50;;;3.72;85.01
63552;BME280;49698;48.072;7.800;2023-02-01T05:57:15;100322.78;;;3.72;85.08
63552;BME280;49698;48.072;7.800;2023-02-01T05:59:43;100319.94;;;3.73;84.94
63552;BME280;49698;48.072;7.800;2023-02-01T06:02:12;100334.44;;;3.77;85.01
63552;BME280;49698;48.072;7.800;2023-02-01T06:04:40;100312.53;;;3.75;84.83
63552;BME280;49698;48.072;7.800;2023-02-01T06:07:09;100322.38;;;3.75;85.17
63552;BME280;49698;48.072;7.800;2023-02-01T06:09:38;100336.72;;;3.74;85.14
63552;BME280;49698;48.072;7.800;2023-02-01T06:12:06;100339.97;;;3.76;85.13
63552;BME280;49698;48.072;7.800;2023-02-01T06:14:34;100317.06;;;3.75;84.88
63552;BME280;49698;48.072;7.800;2023-02-01T06:17:03;100315.44;;;3.74;84.89
63552;BME280;49698;48.072;7.800;2023-02-01T06:19:32;100319.94;;;3.73;84.96
63552;BME280;49698;48.072;7.800;2023-02-01T06:22:00;100331.38;;;3.74;84.85
63552;BME280;49698;48.072;7.800;2023-02-01T06:24:29;100333.22;;;3.73;84.95
63552;BME280;49698;48.072;7.800;2023-02-01T06:26:57;100327.69;;;3.75;85.00
63552;BME280;49698;48.072;7.800;2023-02-01T06:29:25;100335.66;;;3.75;84.97
63552;BME280;49698;48.072;7.800;2023-02-01T06:31:53;100334.84;;;3.74;85.06
63552;BME280;49698;48.072;7.800;2023-02-01T06:34:21;100333.00;;;3.75;85.06
63552;BME280;49698;48.072;7.800;2023-02-01T06:36:50;100338.31;;;3.75;84.95
63552;BME280;49698;48.072;7.800;2023-02-01T06:39:18;100344.44;;;3.75;85.03
63552;BME280;49698;48.072;7.800;2023-02-01T06:41:47;100328.31;;;3.77;84.90
63552;BME280;49698;48.072;7.800;2023-02-01T06:44:16;100338.31;;;3.75;84.88
63552;BME280;49698;48.072;7.800;2023-02-01T06:46:44;100335.09;;;3.73;85.08
63552;BME280;49698;48.072;7.800;2023-02-01T06:49:12;100342.03;;;3.74;85.24
63552;BME280;49698;48.072;7.800;2023-02-01T06:51:40;100327.69;;;3.75;85.32
63552;BME280;49698;48.072;7.800;2023-02-01T06:54:07;100329.78;;;3.73;85.07
63552;BME280;49698;48.072;7.800;2023-02-01T06:56:35;100339.38;;;3.74;85.33
63552;BME280;49698;48.072;7.800;2023-02-01T06:59:05;100338.31;;;3.75;85.02
63552;BME280;49698;48.072;7.800;2023-02-01T07:01:34;100343.22;;;3.78;84.89
63552;BME280;49698;48.072;7.800;2023-02-01T07:04:02;100345.50;;;3.74;85.18
63552;BME280;49698;48.072;7.800;2023-02-01T07:06:30;100339.13;;;3.75;85.26
63552;BME280;49698;48.072;7.800;2023-02-01T07:08:58;100344.44;;;3.75;85.14
63552;BME280;49698;48.072;7.800;2023-02-01T07:11:27;100348.97;;;3.75;85.40
63552;BME280;49698;48.072;7.800;2023-02-01T07:13:55;100359.59;;;3.75;85.36
63552;BME280;49698;48.072;7.800;2023-02-01T07:16:25;100370.25;;;3.75;85.35
63552;BME280;49698;48.072;7.800;2023-02-01T07:18:54;100364.91;;;3.75;85.65
63552;BME280;49698;48.072;7.800;2023-02-01T07:21:22;100371.03;;;3.75;85.35
63552;BME280;49698;48.072;7.800;2023-02-01T07:23:49;100380.44;;;3.78;85.57
63552;BME280;49698;48.072;7.800;2023-02-01T07:26:17;100387.41;;;3.79;86.00
63552;BME280;49698;48.072;7.800;2023-02-01T07:28:45;100394.56;;;3.78;86.00
63552;BME280;49698;48.072;7.800;2023-02-01T07:31:15;100395.59;;;3.77;86.30
63552;BME280;49698;48.072;7.800;2023-02-01T07:33:47;100398.03;;;3.79;86.04
63552;BME280;49698;48.072;7.800;2023-02-01T07:36:16;100397.22;;;3.78;86.12
63552;BME280;49698;48.072;7.800;2023-02-01T07:38:44;100398.03;;;3.79;86.34
63552;BME280;49698;48.072;7.800;2023-02-01T07:41:14;100386.97;;;3.82;86.50
63552;BME280;49698;48.072;7.800;2023-02-01T07:43:42;100373.09;;;3.80;86.61
63552;BME280;49698;48.072;7.800;2023-02-01T07:46:10;100377.38;;;3.81;86.69
63552;BME280;49698;48.072;7.800;2023-02-01T07:48:38;100371.81;;;3.82;86.66
63552;BME280;49698;48.072;7.800;2023-02-01T07:51:11;100362.84;;;3.83;86.77
63552;BME280;49698;48.072;7.800;2023-02-01T07:53:39;100372.22;;;3.86;86.60
63552;BME280;49698;48.072;7.800;2023-02-01T07:56:11;100365.66;;;3.88;86.50
63552;BME280;49698;48.072;7.800;2023-02-01T07:58:39;100358.88;;;3.92;86.50
63552;BME280;49698;48.072;7.800;2023-02-01T08:01:13;100361.94;;;3.96;86.46
63552;BME280;49698;48.072;7.800;2023-02-01T08:03:47;100370.50;;;3.98;86.45
63552;BME280;49698;48.072;7.800;2023-02-01T08:06:17;100382.78;;;3.99;86.57
63552;BME280;49698;48.072;7.800;2023-02-01T08:08:46;100384.41;;;4.00;86.54
63552;BME280;49698;48.072;7.800;2023-02-01T08:11:14;100383.97;;;4.03;86.48
63552;BME280;49698;48.072;7.800;2023-02-01T08:13:43;100395.81;;;4.07;86.44
63552;BME280;49698;48.072;7.800;2023-02-01T08:16:12;100391.09;;;4.09;86.38
63552;BME280;49698;48.072;7.800;2023-02-01T08:18:41;100391.69;;;4.11;86.32
63552;BME280;49698;48.072;7.800;2023-02-01T08:21:10;100396.59;;;4.14;86.49
63552;BME280;49698;48.072;7.800;2023-02-01T08:23:41;100400.44;;;4.19;86.23
63552;BME280;49698;48.072;7.800;2023-02-01T08:26:11;100390.38;;;4.21;86.20
63552;BME280;49698;48.072;7.800;2023-02-01T08:28:41;100395.28;;;4.24;86.07
63552;BME280;49698;48.072;7.800;2023-02-01T08:31:11;100394.03;;;4.26;86.00
63552;BME280;49698;48.072;7.800;2023-02-01T08:33:42;100394.03;;;4.26;85.88
63552;BME280;49698;48.072;7.800;2023-02-01T08:36:11;100385.44;;;4.24;86.00
63552;BME280;49698;48.072;7.800;2023-02-01T08:38:40;100396.09;;;4.24;85.98
63552;BME280;49698;48.072;7.800;2023-02-01T08:41:10;100408.38;;;4.25;86.20
63552;BME280;49698;48.072;7.800;2023-02-01T08:43:38;100414.50;;;4.26;86.21
63552;BME280;49698;48.072;7.800;2023-02-01T08:46:07;100407.13;;;4.28;86.00
63552;BME280;49698;48.072;7.800;2023-02-01T08:48:36;100418.59;;;4.28;86.09
63552;BME280;49698;48.072;7.800;2023-02-01T08:51:06;100416.31;;;4.32;86.17
63552;BME280;49698;48.072;7.800;2023-02-01T08:53:34;100411.41;;;4.29;86.50
63552;BME280;49698;48.072;7.800;2023-02-01T08:56:05;100418.38;;;4.30;86.37
63552;BME280;49698;48.072;7.800;2023-02-01T08:58:33;100413.06;;;4.30;86.37
63552;BME280;49698;48.072;7.800;2023-02-01T09:01:03;100416.91;;;4.34;86.34
63552;BME280;49698;48.072;7.800;2023-02-01T09:03:31;100411.59;;;4.34;86.25
63552;BME280;49698;48.072;7.800;2023-02-01T09:06:02;100401.69;;;4.41;86.57
63552;BME280;49698;48.072;7.800;2023-02-01T09:08:30;100411.03;;;4.50;86.05
63552;BME280;49698;48.072;7.800;2023-02-01T09:10:59;100409.28;;;4.62;85.88
63552;BME280;49698;48.072;7.800;2023-02-01T09:13:30;100403.25;;;4.74;85.73
63552;BME280;49698;48.072;7.800;2023-02-01T09:15:58;100402.53;;;4.85;85.73
63552;BME280;49698;48.072;7.800;2023-02-01T09:18:27;100414.13;;;4.90;85.63
63552;BME280;49698;48.072;7.800;2023-02-01T09:20:55;100415.56;;;4.93;85.57
63552;BME280;49698;48.072;7.800;2023-02-01T09:23:23;100414.22;;;5.02;85.36
63552;BME280;49698;48.072;7.800;2023-02-01T09:25:51;100422.16;;;5.09;85.38
63552;BME280;49698;48.072;7.800;2023-02-01T09:28:19;100405.72;;;5.12;85.52
63552;BME280;49698;48.072;7.800;2023-02-01T09:30:49;100410.00;;;5.13;85.42
63552;BME280;49698;48.072;7.800;2023-02-01T09:33:17;100402.63;;;5.15;85.68
63552;BME280;49698;48.072;7.800;2023-02-01T09:35:45;100419.56;;;5.21;85.58
63552;BME280;49698;48.072;7.800;2023-02-01T09:38:13;100412.31;;;5.28;85.55
63552;BME280;49698;48.072;7.800;2023-02-01T09:40:44;100403.63;;;5.51;85.25
63552;BME280;49698;48.072;7.800;2023-02-01T09:43:23;100397.00;;;6.02;83.67
63552;BME280;49698;48.072;7.800;2023-02-01T09:46:00;100392.84;;;6.18;82.41
63552;BME280;49698;48.072;7.800;2023-02-01T09:48:37;100400.16;;;6.10;82.46
63552;BME280;49698;48.072;7.800;2023-02-01T09:51:13;100409.09;;;6.04;82.75
63552;BME280;49698;48.072;7.800;2023-02-01T09:53:46;100410.59;;;6.00;82.43
63552;BME280;49698;48.072;7.800;2023-02-01T09:56:21;100412.78;;;6.03;83.11
63552;BME280;49698;48.072;7.800;2023-02-01T09:58:55;100412.91;;;6.08;82.90
63552;BME280;49698;48.072;7.800;2023-02-01T10:01:42;100415.00;;;6.06;82.78
63552;BME280;49698;48.072;7.800;2023-02-01T10:04:13;100424.06;;;6.05;82.91
63552;BME280;49698;48.072;7.800;2023-02-01T10:06:53;100419.75;;;6.04;83.08
63552;BME280;49698;48.072;7.800;2023-02-01T10:09:32;100423.94;;;6.00;82.88
63552;BME280;49698;48.072;7.800;2023-02-01T10:15:20;100434.94;;;6.04;82.76
63552;BME280;49698;48.072;7.800;2023-02-01T10:18:03;100432.50;;;6.02;82.82
63552;BME280;49698;48.072;7.800;2023-02-01T10:20:46;100447.94;;;6.00;82.61
63552;BME280;49698;48.072;7.800;2023-02-01T10:23:34;100432.94;;;5.99;82.62
63552;BME280;49698;48.072;7.800;2023-02-01T10:26:12;100439.94;;;6.00;82.66
63552;BME280;49698;48.072;7.800;2023-02-01T10:28:46;100447.13;;;6.11;82.26
63552;BME280;49698;48.072;7.800;2023-02-01T10:31:17;100449.00;;;6.11;82.18
63552;BME280;49698;48.072;7.800;2023-02-01T10:33:48;100442.41;;;6.13;82.38
63552;BME280;49698;48.072;7.800;2023-02-01T10:36:21;100449.16;;;6.16;81.97
63552;BME280;49698;48.072;7.800;2023-02-01T10:38:50;100442.41;;;6.13;82.40
63552;BME280;49698;48.072;7.800;2023-02-01T10:41:20;100433.78;;;6.11;82.51
63552;BME280;49698;48.072;7.800;2023-02-01T10:43:53;100433.22;;;6.09;82.36
63552;BME280;49698;48.072;7.800;2023-02-01T10:46:22;100433.91;;;6.05;82.62
63552;BME280;49698;48.072;7.800;2023-02-01T10:48:54;100438.06;;;6.01;83.15
63552;BME280;49698;48.072;7.800;2023-02-01T10:51:25;100444.31;;;5.95;83.26
63552;BME280;49698;48.072;7.800;2023-02-01T10:53:57;100440.69;;;5.89;83.90
63552;BME280;49698;48.072;7.800;2023-02-01T10:56:28;100432.06;;;5.87;84.19
63552;BME280;49698;48.072;7.800;2023-02-01T10:59:01;100432.88;;;5.87;84.31
63552;BME280;49698;48.072;7.800;2023-02-01T11:01:33;100431.63;;;5.90;84.59
63552;BME280;49698;48.072;7.800;2023-02-01T11:04:04;100424.22;;;5.92;84.59
63552;BME280;49698;48.072;7.800;2023-02-01T11:06:35;100426.69;;;5.94;84.64
63552;BME280;49698;48.072;7.800;2023-02-01T11:09:10;100423.69;;;6.02;84.88
63552;BME280;49698;48.072;7.800;2023-02-01T11:11:53;100419.88;;;6.09;84.68
63552;BME280;49698;48.072;7.800;2023-02-01T11:14:27;100413.41;;;6.29;84.23
63552;BME280;49698;48.072;7.800;2023-02-01T11:16:58;100396.25;;;6.48;83.34
63552;BME280;49698;48.072;7.800;2023-02-01T11:19:28;100401.00;;;6.70;82.41
63552;BME280;49698;48.072;7.800;2023-02-01T11:21:59;100396.97;;;6.79;81.63
63552;BME280;49698;48.072;7.800;2023-02-01T11:24:31;100402.75;;;6.99;80.98
63552;BME280;49698;48.072;7.800;2023-02-01T11:27:04;100397.25;;;7.29;78.95
63552;BME280;49698;48.072;7.800;2023-02-01T11:29:35;100404.59;;;7.51;78.13
63552;BME280;49698;48.072;7.800;2023-02-01T11:32:05;100396.66;;;7.68;77.29
63552;BME280;49698;48.072;7.800;2023-02-01T11:34:37;100390.09;;;7.75;76.57
63552;BME280;49698;48.072;7.800;2023-02-01T11:37:14;100396.81;;;7.78;76.04
63552;BME280;49698;48.072;7.800;2023-02-01T11:39:53;100385.56;;;7.76;75.64
63552;BME280;49698;48.072;7.800;2023-02-01T11:42:22;100373.72;;;7.72;75.34
63552;BME280;49698;48.072;7.800;2023-02-01T11:44:50;100371.13;;;7.77;75.00
63552;BME280;49698;48.072;7.800;2023-02-01T11:47:23;100348.56;;;7.73;73.81
63552;BME280;49698;48.072;7.800;2023-02-01T11:49:54;100354.78;;;7.62;72.21
63552;BME280;49698;48.072;7.800;2023-02-01T11:55:30;100346.25;;;7.48;71.70
63552;BME280;49698;48.072;7.800;2023-02-01T11:58:13;100350.41;;;7.55;71.62
63552;BME280;49698;48.072;7.800;2023-02-01T12:00:57;100352.59;;;7.58;71.46
63552;BME280;49698;48.072;7.800;2023-02-01T12:03:43;100347.22;;;7.58;71.34
63552;BME280;49698;48.072;7.800;2023-02-01T12:06:24;100355.84;;;7.60;70.67
63552;BME280;49698;48.072;7.800;2023-02-01T12:09:27;100352.03;;;7.56;70.22
63552;BME280;49698;48.072;7.800;2023-02-01T12:12:08;100338.06;;;7.54;69.67
63552;BME280;49698;48.072;7.800;2023-02-01T12:14:49;100349.00;;;7.53;69.90
63552;BME280;49698;48.072;7.800;2023-02-01T12:17:41;100342.78;;;7.47;69.29
63552;BME280;49698;48.072;7.800;2023-02-01T12:23:15;100335.47;;;7.31;69.69
63552;BME280;49698;48.072;7.800;2023-02-01T12:26:00;100330.44;;;7.18;70.46
63552;BME280;49698;48.072;7.800;2023-02-01T12:28:56;100334.19;;;7.05;70.81
63552;BME280;49698;48.072;7.800;2023-02-01T12:31:45;100349.75;;;6.96;71.61
63552;BME280;49698;48.072;7.800;2023-02-01T12:34:39;100352.78;;;6.88;71.84
63552;BME280;49698;48.072;7.800;2023-02-01T12:37:19;100342.47;;;6.80;72.16
63552;BME280;49698;48.072;7.800;2023-02-01T12:39:59;100336.22;;;6.74;72.40
63552;BME280;49698;48.072;7.800;2023-02-01T12:42:33;100330.53;;;6.71;72.37
63552;BME280;49698;48.072;7.800;2023-02-01T12:45:12;100334.47;;;6.68;72.96
63552;BME280;49698;48.072;7.800;2023-02-01T12:47:46;100333.06;;;6.66;72.78
63552;BME280;49698;48.072;7.800;2023-02-01T12:50:20;100330.28;;;6.60;72.95
63552;BME280;49698;48.072;7.800;2023-02-01T12:52:51;100315.31;;;6.59;73.15
63552;BME280;49698;48.072;7.800;2023-02-01T12:55:23;100324.94;;;6.60;73.38
63552;BME280;49698;48.072;7.800;2023-02-01T12:57:54;100319.59;;;6.60;73.59
63552;BME280;49698;48.072;7.800;2023-02-01T13:00:29;100321.22;;;6.61;73.66
63552;BME280;49698;48.072;7.800;2023-02-01T13:03:01;100315.41;;;6.65;73.90
63552;BME280;49698;48.072;7.800;2023-02-01T13:05:39;100313.56;;;6.65;73.79
63552;BME280;49698;48.072;7.800;2023-02-01T13:08:14;100300.00;;;6.67;74.06
63552;BME280;49698;48.072;7.800;2023-02-01T13:10:46;100299.75;;;6.68;73.91
63552;BME280;49698;48.072;7.800;2023-02-01T13:13:19;100302.16;;;6.70;73.68
63552;BME280;49698;48.072;7.800;2023-02-01T13:15:57;100309.16;;;6.71;73.41
63552;BME280;49698;48.072;7.800;2023-02-01T13:18:32;100303.00;;;6.70;73.35
63552;BME280;49698;48.072;7.800;2023-02-01T13:21:04;100304.84;;;6.70;72.39
63552;BME280;49698;48.072;7.800;2023-02-01T13:23:36;100295.78;;;6.71;71.55
63552;BME280;49698;48.072;7.800;2023-02-01T13:26:07;100285.09;;;6.71;71.16
63552;BME280;49698;48.072;7.800;2023-02-01T13:28:40;100291.59;;;6.75;71.37
63552;BME280;49698;48.072;7.800;2023-02-01T13:31:30;100289.38;;;6.83;70.87
63552;BME280;49698;48.072;7.800;2023-02-01T13:34:32;100291.00;;;6.84;70.84
63552;BME280;49698;48.072;7.800;2023-02-01T13:37:17;100298.19;;;6.84;70.48